PUUANAHULU HI US current weather conditions

sailwx.info

Air temperature 18.3° C
Dewpoint 18.3° C

Last reported at 2016-Dec-09 08:37 UTC.
Time now 2016-Dec-09 09:46 UTC

Location: N 19°50' W 155°46'.
View on Google Maps.

See reports from other nearby stations

  
Tides and Currents Weather Stations Pressure Air Temp Water Temp Dewpoint Dewpoint Depression Visibility Wind Speed Wind Dir Waves Ship Positions
date/time (UTC)wind fromknots sea level pressurealtimeterstation pressurevisibilityair tempwater tempwave heightnotes
2016-Dec-09 08:37 18.3
2016-Dec-09 07:37 323 0 gusting 2 18.3
2016-Dec-09 06:37 18.3
2016-Dec-09 05:37 18.3
2016-Dec-09 04:37 18.3
2016-Dec-09 03:37 133 1 gusting 2 18.3
2016-Dec-09 02:37 17.8
2016-Dec-09 01:37 003 3 gusting 8 17.8
2016-Dec-09 00:37 315 5 gusting 8 18.3
2016-Dec-08 23:37 323 3 gusting 5 18.9
2016-Dec-08 22:37 345 2 gusting 5 20.0
2016-Dec-08 21:37 119 0 gusting 4 19.4
2016-Dec-08 18:37 097 2 gusting 4 18.9
2016-Dec-08 17:37 18.3
2016-Dec-08 16:37 137 5 gusting 7 18.3
2016-Dec-08 15:37 138 3 gusting 4 18.3
2016-Dec-08 14:37 213 2 gusting 5 18.3
2016-Dec-08 13:37 174 3 gusting 4 17.8
2016-Dec-08 12:37 136 3 gusting 4 17.2
2016-Dec-08 11:37 168 2 gusting 5 17.2
2016-Dec-08 10:37 144 0 gusting 3 17.8
2016-Dec-08 09:37 140 2 gusting 6 18.9
2016-Dec-08 08:37 148 0 gusting 5 19.4
2016-Dec-08 07:37 135 3 gusting 6 18.9
2016-Dec-08 06:37 053 2 gusting 5 19.4
2016-Dec-08 05:37 045 3 gusting 5 19.4
2016-Dec-08 04:37 037 1 gusting 6 19.4
2016-Dec-08 03:37 010 3 gusting 7 20.6
2016-Dec-08 02:37 322 4 gusting 7 22.2
2016-Dec-08 01:37 351 2 gusting 9 23.3
2016-Dec-08 00:37 334 4 gusting 8 24.4
2016-Dec-07 23:37 301 4 gusting 11 24.4
2016-Dec-07 22:37 309 6 gusting 13 25.6
2016-Dec-07 21:37 322 4 gusting 13 25.6
2016-Dec-07 20:37 357 6 gusting 13 25.0
2016-Dec-07 19:37 339 6 gusting 10 23.9
2016-Dec-07 18:37 133 0 gusting 6 22.8
2016-Dec-07 17:37 135 5 gusting 8 17.8
2016-Dec-07 16:37 134 6 gusting 11 16.1
2016-Dec-07 15:37 114 3 gusting 11 16.1
2016-Dec-07 14:37 141 6 gusting 10 16.1
2016-Dec-07 13:37 137 6 gusting 9 16.7
2016-Dec-07 12:37 127 6 gusting 8 17.2
2016-Dec-07 11:37 149 3 gusting 6 16.7
2016-Dec-07 10:37 143 4 gusting 6 17.2
2016-Dec-07 09:37 155 2 gusting 4 18.3